sensor_id;sensor_type;location;lat;lon;timestamp;P1;durP1;ratioP1;P2;durP2;ratioP2
24745;SDS011;12845;52.042;6.838;2023-03-11T00:01:38;9.55;;;7.38;;
24745;SDS011;12845;52.042;6.838;2023-03-11T00:04:04;8.27;;;6.57;;
24745;SDS011;12845;52.042;6.838;2023-03-11T00:06:30;11.43;;;7.22;;
24745;SDS011;12845;52.042;6.838;2023-03-11T00:08:56;10.00;;;6.80;;
24745;SDS011;12845;52.042;6.838;2023-03-11T00:11:21;8.15;;;6.82;;
24745;SDS011;12845;52.042;6.838;2023-03-11T00:13:46;11.20;;;7.22;;
24745;SDS011;12845;52.042;6.838;2023-03-11T00:16:12;9.93;;;6.90;;
24745;SDS011;12845;52.042;6.838;2023-03-11T00:18:37;11.73;;;7.35;;
24745;SDS011;12845;52.042;6.838;2023-03-11T00:21:02;10.95;;;6.75;;
24745;SDS011;12845;52.042;6.838;2023-03-11T00:23:28;10.38;;;5.97;;
24745;SDS011;12845;52.042;6.838;2023-03-11T00:25:53;11.00;;;6.85;;
24745;SDS011;12845;52.042;6.838;2023-03-11T00:28:19;9.50;;;7.07;;
24745;SDS011;12845;52.042;6.838;2023-03-11T00:30:49;6.68;;;4.60;;
24745;SDS011;12845;52.042;6.838;2023-03-11T00:33:15;9.40;;;5.80;;
24745;SDS011;12845;52.042;6.838;2023-03-11T00:35:41;7.85;;;5.90;;
24745;SDS011;12845;52.042;6.838;2023-03-11T00:38:08;7.35;;;4.90;;
24745;SDS011;12845;52.042;6.838;2023-03-11T00:40:37;6.82;;;5.35;;
24745;SDS011;12845;52.042;6.838;2023-03-11T00:43:03;5.75;;;4.05;;
24745;SDS011;12845;52.042;6.838;2023-03-11T00:45:28;7.45;;;4.43;;
24745;SDS011;12845;52.042;6.838;2023-03-11T00:47:54;11.02;;;5.63;;
24745;SDS011;12845;52.042;6.838;2023-03-11T00:50:21;7.97;;;5.35;;
24745;SDS011;12845;52.042;6.838;2023-03-11T00:52:49;6.25;;;4.82;;
24745;SDS011;12845;52.042;6.838;2023-03-11T00:55:16;7.30;;;4.90;;
24745;SDS011;12845;52.042;6.838;2023-03-11T00:57:44;7.47;;;5.40;;
24745;SDS011;12845;52.042;6.838;2023-03-11T01:00:17;6.30;;;4.07;;
24745;SDS011;12845;52.042;6.838;2023-03-11T01:02:44;8.85;;;5.30;;
24745;SDS011;12845;52.042;6.838;2023-03-11T01:05:10;7.88;;;4.78;;
24745;SDS011;12845;52.042;6.838;2023-03-11T01:07:35;6.00;;;4.55;;
24745;SDS011;12845;52.042;6.838;2023-03-11T01:10:01;7.90;;;4.47;;
24745;SDS011;12845;52.042;6.838;2023-03-11T01:12:27;7.95;;;4.88;;
24745;SDS011;12845;52.042;6.838;2023-03-11T01:14:53;9.00;;;5.07;;
24745;SDS011;12845;52.042;6.838;2023-03-11T01:17:18;9.73;;;5.15;;
24745;SDS011;12845;52.042;6.838;2023-03-11T01:19:46;5.85;;;4.88;;
24745;SDS011;12845;52.042;6.838;2023-03-11T01:22:11;8.45;;;5.07;;
24745;SDS011;12845;52.042;6.838;2023-03-11T01:24:37;7.93;;;5.68;;
24745;SDS011;12845;52.042;6.838;2023-03-11T01:27:02;8.68;;;5.47;;
24745;SDS011;12845;52.042;6.838;2023-03-11T01:29:28;6.57;;;3.95;;
24745;SDS011;12845;52.042;6.838;2023-03-11T01:31:53;8.77;;;4.72;;
24745;SDS011;12845;52.042;6.838;2023-03-11T01:34:18;6.65;;;4.50;;
24745;SDS011;12845;52.042;6.838;2023-03-11T01:36:44;6.05;;;3.80;;
24745;SDS011;12845;52.042;6.838;2023-03-11T01:39:09;8.68;;;4.53;;
24745;SDS011;12845;52.042;6.838;2023-03-11T01:41:35;6.78;;;4.63;;
24745;SDS011;12845;52.042;6.838;2023-03-11T01:44:00;7.97;;;4.25;;
24745;SDS011;12845;52.042;6.838;2023-03-11T01:46:35;8.38;;;4.50;;
24745;SDS011;12845;52.042;6.838;2023-03-11T01:49:23;7.38;;;4.40;;
24745;SDS011;12845;52.042;6.838;2023-03-11T01:51:50;6.70;;;4.30;;
24745;SDS011;12845;52.042;6.838;2023-03-11T01:54:19;10.48;;;3.70;;
24745;SDS011;12845;52.042;6.838;2023-03-11T01:56:47;6.90;;;3.78;;
24745;SDS011;12845;52.042;6.838;2023-03-11T01:59:16;7.50;;;4.45;;
24745;SDS011;12845;52.042;6.838;2023-03-11T02:01:51;9.85;;;4.10;;
24745;SDS011;12845;52.042;6.838;2023-03-11T02:04:23;6.20;;;3.40;;
24745;SDS011;12845;52.042;6.838;2023-03-11T02:06:48;9.23;;;4.00;;
24745;SDS011;12845;52.042;6.838;2023-03-11T02:09:15;7.72;;;3.88;;
24745;SDS011;12845;52.042;6.838;2023-03-11T02:11:40;7.97;;;3.50;;
24745;SDS011;12845;52.042;6.838;2023-03-11T02:14:06;9.10;;;4.20;;
24745;SDS011;12845;52.042;6.838;2023-03-11T02:16:33;11.55;;;4.45;;
24745;SDS011;12845;52.042;6.838;2023-03-11T02:18:59;7.75;;;3.83;;
24745;SDS011;12845;52.042;6.838;2023-03-11T02:21:36;9.25;;;4.20;;
24745;SDS011;12845;52.042;6.838;2023-03-11T02:29:44;6.32;;;3.90;;
24745;SDS011;12845;52.042;6.838;2023-03-11T02:32:14;7.68;;;4.72;;
24745;SDS011;12845;52.042;6.838;2023-03-11T02:34:40;10.48;;;3.88;;
24745;SDS011;12845;52.042;6.838;2023-03-11T02:37:07;12.52;;;3.80;;
24745;SDS011;12845;52.042;6.838;2023-03-11T02:39:37;6.28;;;3.15;;
24745;SDS011;12845;52.042;6.838;2023-03-11T02:42:06;7.47;;;4.10;;
24745;SDS011;12845;52.042;6.838;2023-03-11T02:44:36;7.72;;;3.95;;
24745;SDS011;12845;52.042;6.838;2023-03-11T02:47:03;11.73;;;4.43;;
24745;SDS011;12845;52.042;6.838;2023-03-11T02:49:29;7.25;;;4.03;;
24745;SDS011;12845;52.042;6.838;2023-03-11T02:51:55;9.18;;;3.97;;
24745;SDS011;12845;52.042;6.838;2023-03-11T02:54:20;7.00;;;3.63;;
24745;SDS011;12845;52.042;6.838;2023-03-11T02:56:45;8.85;;;4.07;;
24745;SDS011;12845;52.042;6.838;2023-03-11T02:59:11;10.32;;;4.82;;
24745;SDS011;12845;52.042;6.838;2023-03-11T03:01:36;9.70;;;3.47;;
24745;SDS011;12845;52.042;6.838;2023-03-11T03:04:02;8.25;;;3.58;;
24745;SDS011;12845;52.042;6.838;2023-03-11T03:06:27;13.32;;;3.63;;
24745;SDS011;12845;52.042;6.838;2023-03-11T03:08:53;8.70;;;3.78;;
24745;SDS011;12845;52.042;6.838;2023-03-11T03:11:18;7.88;;;3.67;;
24745;SDS011;12845;52.042;6.838;2023-03-11T03:13:44;5.60;;;3.30;;
24745;SDS011;12845;52.042;6.838;2023-03-11T03:16:10;7.63;;;3.53;;
24745;SDS011;12845;52.042;6.838;2023-03-11T03:18:35;9.50;;;4.07;;
24745;SDS011;12845;52.042;6.838;2023-03-11T03:21:01;13.65;;;3.55;;
24745;SDS011;12845;52.042;6.838;2023-03-11T03:23:26;6.57;;;3.25;;
24745;SDS011;12845;52.042;6.838;2023-03-11T03:25:52;10.07;;;4.00;;
24745;SDS011;12845;52.042;6.838;2023-03-11T03:28:17;9.25;;;4.40;;
24745;SDS011;12845;52.042;6.838;2023-03-11T03:30:43;7.38;;;3.03;;
24745;SDS011;12845;52.042;6.838;2023-03-11T03:33:08;13.73;;;4.05;;
24745;SDS011;12845;52.042;6.838;2023-03-11T03:35:34;11.75;;;3.72;;
24745;SDS011;12845;52.042;6.838;2023-03-11T03:37:59;9.95;;;4.00;;
24745;SDS011;12845;52.042;6.838;2023-03-11T03:40:25;11.15;;;4.13;;
24745;SDS011;12845;52.042;6.838;2023-03-11T03:42:51;7.60;;;4.00;;
24745;SDS011;12845;52.042;6.838;2023-03-11T03:45:16;10.23;;;4.10;;
24745;SDS011;12845;52.042;6.838;2023-03-11T03:47:42;7.03;;;3.30;;
24745;SDS011;12845;52.042;6.838;2023-03-11T03:50:08;9.82;;;4.10;;
24745;SDS011;12845;52.042;6.838;2023-03-11T03:52:35;10.30;;;3.78;;
24745;SDS011;12845;52.042;6.838;2023-03-11T03:55:02;8.30;;;4.20;;
24745;SDS011;12845;52.042;6.838;2023-03-11T03:57:28;6.32;;;4.35;;
24745;SDS011;12845;52.042;6.838;2023-03-11T03:59:54;10.55;;;3.17;;
24745;SDS011;12845;52.042;6.838;2023-03-11T04:02:19;11.00;;;4.20;;
24745;SDS011;12845;52.042;6.838;2023-03-11T04:04:45;8.45;;;3.20;;
24745;SDS011;12845;52.042;6.838;2023-03-11T04:07:11;8.02;;;3.05;;
24745;SDS011;12845;52.042;6.838;2023-03-11T04:09:39;8.77;;;3.17;;
24745;SDS011;12845;52.042;6.838;2023-03-11T04:12:06;9.98;;;3.50;;
24745;SDS011;12845;52.042;6.838;2023-03-11T04:14:32;9.30;;;3.67;;
24745;SDS011;12845;52.042;6.838;2023-03-11T04:16:57;8.93;;;3.00;;
24745;SDS011;12845;52.042;6.838;2023-03-11T04:19:23;11.10;;;5.00;;
24745;SDS011;12845;52.042;6.838;2023-03-11T04:21:49;10.38;;;3.88;;
24745;SDS011;12845;52.042;6.838;2023-03-11T04:24:16;8.48;;;3.72;;
24745;SDS011;12845;52.042;6.838;2023-03-11T04:26:42;7.05;;;2.60;;
24745;SDS011;12845;52.042;6.838;2023-03-11T04:29:08;5.80;;;2.75;;
24745;SDS011;12845;52.042;6.838;2023-03-11T04:31:33;10.73;;;3.08;;
24745;SDS011;12845;52.042;6.838;2023-03-11T04:34:01;4.95;;;3.13;;
24745;SDS011;12845;52.042;6.838;2023-03-11T04:36:27;9.77;;;3.40;;
24745;SDS011;12845;52.042;6.838;2023-03-11T04:38:54;7.32;;;3.00;;
24745;SDS011;12845;52.042;6.838;2023-03-11T04:41:20;9.30;;;3.08;;
24745;SDS011;12845;52.042;6.838;2023-03-11T04:43:46;7.55;;;3.03;;
24745;SDS011;12845;52.042;6.838;2023-03-11T04:46:11;11.27;;;3.55;;
24745;SDS011;12845;52.042;6.838;2023-03-11T04:48:37;9.20;;;2.90;;
24745;SDS011;12845;52.042;6.838;2023-03-11T04:51:02;7.35;;;2.28;;
24745;SDS011;12845;52.042;6.838;2023-03-11T04:53:28;6.60;;;2.90;;
24745;SDS011;12845;52.042;6.838;2023-03-11T04:55:53;5.05;;;2.38;;
24745;SDS011;12845;52.042;6.838;2023-03-11T04:58:21;10.05;;;2.88;;
24745;SDS011;12845;52.042;6.838;2023-03-11T05:00:47;8.82;;;2.85;;
24745;SDS011;12845;52.042;6.838;2023-03-11T05:03:13;6.25;;;2.63;;
24745;SDS011;12845;52.042;6.838;2023-03-11T05:05:38;5.78;;;2.22;;
24745;SDS011;12845;52.042;6.838;2023-03-11T05:08:06;7.93;;;2.85;;
24745;SDS011;12845;52.042;6.838;2023-03-11T05:10:34;13.23;;;2.95;;
24745;SDS011;12845;52.042;6.838;2023-03-11T05:13:00;8.98;;;2.55;;
24745;SDS011;12845;52.042;6.838;2023-03-11T05:15:26;5.82;;;3.20;;
24745;SDS011;12845;52.042;6.838;2023-03-11T05:17:52;11.93;;;3.15;;
24745;SDS011;12845;52.042;6.838;2023-03-11T05:20:18;11.07;;;3.05;;
24745;SDS011;12845;52.042;6.838;2023-03-11T05:22:47;7.97;;;2.50;;
24745;SDS011;12845;52.042;6.838;2023-03-11T05:25:12;9.48;;;3.25;;
24745;SDS011;12845;52.042;6.838;2023-03-11T05:27:38;5.47;;;3.15;;
24745;SDS011;12845;52.042;6.838;2023-03-11T05:30:04;7.50;;;3.85;;
24745;SDS011;12845;52.042;6.838;2023-03-11T05:32:29;8.15;;;3.70;;
24745;SDS011;12845;52.042;6.838;2023-03-11T05:34:58;7.82;;;2.90;;
24745;SDS011;12845;52.042;6.838;2023-03-11T05:37:23;12.38;;;2.97;;
24745;SDS011;12845;52.042;6.838;2023-03-11T05:39:50;6.50;;;2.42;;
24745;SDS011;12845;52.042;6.838;2023-03-11T05:42:16;8.00;;;3.20;;
24745;SDS011;12845;52.042;6.838;2023-03-11T05:44:42;5.18;;;3.05;;
24745;SDS011;12845;52.042;6.838;2023-03-11T05:47:07;8.52;;;3.90;;
24745;SDS011;12845;52.042;6.838;2023-03-11T05:49:32;12.95;;;5.53;;
24745;SDS011;12845;52.042;6.838;2023-03-11T05:51:58;13.43;;;7.00;;
24745;SDS011;12845;52.042;6.838;2023-03-11T05:54:23;16.25;;;9.45;;
24745;SDS011;12845;52.042;6.838;2023-03-11T05:56:49;13.73;;;6.63;;
24745;SDS011;12845;52.042;6.838;2023-03-11T05:59:14;12.65;;;8.43;;
24745;SDS011;12845;52.042;6.838;2023-03-11T06:01:41;12.25;;;7.07;;
24745;SDS011;12845;52.042;6.838;2023-03-11T06:04:08;9.23;;;4.82;;
24745;SDS011;12845;52.042;6.838;2023-03-11T06:06:36;15.88;;;8.75;;
24745;SDS011;12845;52.042;6.838;2023-03-11T06:09:12;14.80;;;9.45;;
24745;SDS011;12845;52.042;6.838;2023-03-11T06:11:54;14.38;;;9.20;;
24745;SDS011;12845;52.042;6.838;2023-03-11T06:14:23;15.93;;;7.75;;
24745;SDS011;12845;52.042;6.838;2023-03-11T06:16:48;15.07;;;7.68;;
24745;SDS011;12845;52.042;6.838;2023-03-11T06:19:13;12.48;;;7.82;;
24745;SDS011;12845;52.042;6.838;2023-03-11T06:21:39;14.85;;;7.07;;
24745;SDS011;12845;52.042;6.838;2023-03-11T06:24:04;14.80;;;7.50;;
24745;SDS011;12845;52.042;6.838;2023-03-11T06:26:30;18.67;;;9.05;;
24745;SDS011;12845;52.042;6.838;2023-03-11T06:28:56;16.05;;;8.98;;
24745;SDS011;12845;52.042;6.838;2023-03-11T06:31:24;23.67;;;10.23;;
24745;SDS011;12845;52.042;6.838;2023-03-11T06:33:51;15.82;;;7.20;;
24745;SDS011;12845;52.042;6.838;2023-03-11T06:36:18;19.45;;;7.20;;
24745;SDS011;12845;52.042;6.838;2023-03-11T06:38:44;24.20;;;10.32;;
24745;SDS011;12845;52.042;6.838;2023-03-11T06:41:10;17.85;;;7.07;;
24745;SDS011;12845;52.042;6.838;2023-03-11T06:43:36;13.60;;;5.97;;
24745;SDS011;12845;52.042;6.838;2023-03-11T06:46:09;16.52;;;7.28;;
24745;SDS011;12845;52.042;6.838;2023-03-11T06:48:36;19.05;;;8.77;;
24745;SDS011;12845;52.042;6.838;2023-03-11T06:51:02;17.25;;;8.52;;
24745;SDS011;12845;52.042;6.838;2023-03-11T06:53:28;25.00;;;10.57;;
24745;SDS011;12845;52.042;6.838;2023-03-11T06:56:01;25.25;;;10.57;;
24745;SDS011;12845;52.042;6.838;2023-03-11T06:58:31;18.77;;;9.90;;
24745;SDS011;12845;52.042;6.838;2023-03-11T07:01:21;13.07;;;5.13;;
24745;SDS011;12845;52.042;6.838;2023-03-11T07:03:48;7.85;;;4.22;;
24745;SDS011;12845;52.042;6.838;2023-03-11T07:06:15;7.85;;;4.95;;
24745;SDS011;12845;52.042;6.838;2023-03-11T07:08:46;13.15;;;5.68;;
24745;SDS011;12845;52.042;6.838;2023-03-11T07:11:14;15.60;;;5.00;;
24745;SDS011;12845;52.042;6.838;2023-03-11T07:13:43;12.02;;;5.63;;
24745;SDS011;12845;52.042;6.838;2023-03-11T07:16:10;6.97;;;4.25;;
24745;SDS011;12845;52.042;6.838;2023-03-11T07:18:36;8.48;;;4.65;;
24745;SDS011;12845;52.042;6.838;2023-03-11T07:21:02;8.18;;;4.28;;
24745;SDS011;12845;52.042;6.838;2023-03-11T07:23:28;9.88;;;4.90;;
24745;SDS011;12845;52.042;6.838;2023-03-11T07:25:54;9.07;;;3.97;;
24745;SDS011;12845;52.042;6.838;2023-03-11T07:28:20;7.63;;;3.50;;
24745;SDS011;12845;52.042;6.838;2023-03-11T07:30:46;7.15;;;2.72;;
24745;SDS011;12845;52.042;6.838;2023-03-11T07:33:12;9.57;;;3.28;;
24745;SDS011;12845;52.042;6.838;2023-03-11T07:35:38;8.07;;;3.38;;
24745;SDS011;12845;52.042;6.838;2023-03-11T07:38:03;6.25;;;3.17;;
24745;SDS011;12845;52.042;6.838;2023-03-11T07:40:32;6.35;;;2.80;;
24745;SDS011;12845;52.042;6.838;2023-03-11T07:42:58;6.35;;;3.17;;
24745;SDS011;12845;52.042;6.838;2023-03-11T07:45:23;7.82;;;3.00;;
24745;SDS011;12845;52.042;6.838;2023-03-11T07:47:49;8.57;;;3.95;;
24745;SDS011;12845;52.042;6.838;2023-03-11T07:50:15;7.82;;;2.28;;
24745;SDS011;12845;52.042;6.838;2023-03-11T07:52:41;8.52;;;2.47;;
24745;SDS011;12845;52.042;6.838;2023-03-11T07:55:07;9.10;;;3.15;;
24745;SDS011;12845;52.042;6.838;2023-03-11T07:57:33;6.68;;;2.78;;
24745;SDS011;12845;52.042;6.838;2023-03-11T08:00:01;8.60;;;2.72;;
24745;SDS011;12845;52.042;6.838;2023-03-11T08:04:54;8.45;;;2.50;;
24745;SDS011;12845;52.042;6.838;2023-03-11T08:07:23;4.78;;;2.50;;
24745;SDS011;12845;52.042;6.838;2023-03-11T08:09:48;5.13;;;2.75;;
24745;SDS011;12845;52.042;6.838;2023-03-11T08:12:14;8.05;;;2.75;;
24745;SDS011;12845;52.042;6.838;2023-03-11T08:14:43;7.47;;;2.70;;
24745;SDS011;12845;52.042;6.838;2023-03-11T08:17:08;7.10;;;2.55;;
24745;SDS011;12845;52.042;6.838;2023-03-11T08:19:34;4.72;;;2.50;;
24745;SDS011;12845;52.042;6.838;2023-03-11T08:22:00;11.27;;;5.18;;
24745;SDS011;12845;52.042;6.838;2023-03-11T08:24:27;8.25;;;3.47;;
24745;SDS011;12845;52.042;6.838;2023-03-11T08:26:52;7.40;;;3.22;;
24745;SDS011;12845;52.042;6.838;2023-03-11T08:29:19;9.38;;;2.50;;
24745;SDS011;12845;52.042;6.838;2023-03-11T08:31:45;6.60;;;2.42;;
24745;SDS011;12845;52.042;6.838;2023-03-11T08:34:10;6.88;;;2.58;;
24745;SDS011;12845;52.042;6.838;2023-03-11T08:36:36;4.20;;;2.22;;
24745;SDS011;12845;52.042;6.838;2023-03-11T08:39:02;9.85;;;4.00;;
24745;SDS011;12845;52.042;6.838;2023-03-11T08:41:27;13.60;;;6.93;;
24745;SDS011;12845;52.042;6.838;2023-03-11T08:43:53;6.55;;;3.92;;
24745;SDS011;12845;52.042;6.838;2023-03-11T08:48:46;8.82;;;4.35;;
24745;SDS011;12845;52.042;6.838;2023-03-11T08:51:12;10.65;;;3.58;;
24745;SDS011;12845;52.042;6.838;2023-03-11T08:53:38;16.90;;;5.68;;
24745;SDS011;12845;52.042;6.838;2023-03-11T08:56:04;22.55;;;5.10;;
24745;SDS011;12845;52.042;6.838;2023-03-11T08:58:33;20.13;;;6.63;;
24745;SDS011;12845;52.042;6.838;2023-03-11T09:00:58;19.67;;;5.30;;
24745;SDS011;12845;52.042;6.838;2023-03-11T09:03:24;16.48;;;3.95;;
24745;SDS011;12845;52.042;6.838;2023-03-11T09:05:55;6.03;;;2.22;;
24745;SDS011;12845;52.042;6.838;2023-03-11T09:08:21;11.85;;;3.20;;
24745;SDS011;12845;52.042;6.838;2023-03-11T09:10:47;7.32;;;2.85;;
24745;SDS011;12845;52.042;6.838;2023-03-11T09:13:12;5.15;;;2.45;;
24745;SDS011;12845;52.042;6.838;2023-03-11T09:15:38;4.22;;;2.63;;
24745;SDS011;12845;52.042;6.838;2023-03-11T09:18:04;7.68;;;2.33;;
24745;SDS011;12845;52.042;6.838;2023-03-11T09:20:29;5.43;;;2.00;;
24745;SDS011;12845;52.042;6.838;2023-03-11T09:22:55;6.55;;;2.28;;
24745;SDS011;12845;52.042;6.838;2023-03-11T09:25:25;10.30;;;2.80;;
24745;SDS011;12845;52.042;6.838;2023-03-11T09:27:51;5.82;;;2.28;;
24745;SDS011;12845;52.042;6.838;2023-03-11T09:30:17;6.65;;;2.28;;
24745;SDS011;12845;52.042;6.838;2023-03-11T09:32:42;6.45;;;2.20;;
24745;SDS011;12845;52.042;6.838;2023-03-11T09:35:07;4.93;;;1.70;;
24745;SDS011;12845;52.042;6.838;2023-03-11T09:37:35;6.10;;;2.33;;
24745;SDS011;12845;52.042;6.838;2023-03-11T09:40:01;5.15;;;1.55;;
24745;SDS011;12845;52.042;6.838;2023-03-11T09:42:31;6.45;;;1.95;;
24745;SDS011;12845;52.042;6.838;2023-03-11T09:45:26;6.32;;;1.17;;
24745;SDS011;12845;52.042;6.838;2023-03-11T09:48:02;4.72;;;1.60;;
24745;SDS011;12845;52.042;6.838;2023-03-11T09:53:39;9.88;;;2.92;;
24745;SDS011;12845;52.042;6.838;2023-03-11T09:56:08;4.47;;;1.40;;
24745;SDS011;12845;52.042;6.838;2023-03-11T10:01:22;7.65;;;1.60;;
24745;SDS011;12845;52.042;6.838;2023-03-11T10:03:51;2.75;;;1.17;;
24745;SDS011;12845;52.042;6.838;2023-03-11T10:06:24;4.88;;;1.65;;
24745;SDS011;12845;52.042;6.838;2023-03-11T10:09:36;4.57;;;1.15;;
24745;SDS011;12845;52.042;6.838;2023-03-11T10:33:49;6.65;;;1.77;;
24745;SDS011;12845;52.042;6.838;2023-03-11T10:36:16;4.13;;;1.30;;
24745;SDS011;12845;52.042;6.838;2023-03-11T10:38:48;5.20;;;1.70;;
24745;SDS011;12845;52.042;6.838;2023-03-11T10:44:10;4.88;;;1.10;;
24745;SDS011;12845;52.042;6.838;2023-03-11T10:46:43;4.97;;;1.10;;
24745;SDS011;12845;52.042;6.838;2023-03-11T10:49:13;3.13;;;1.10;;
24745;SDS011;12845;52.042;6.838;2023-03-11T10:51:40;4.07;;;1.17;;
24745;SDS011;12845;52.042;6.838;2023-03-11T10:54:10;4.07;;;1.25;;
24745;SDS011;12845;52.042;6.838;2023-03-11T10:56:48;5.07;;;0.95;;
24745;SDS011;12845;52.042;6.838;2023-03-11T10:59:23;4.30;;;1.45;;
24745;SDS011;12845;52.042;6.838;2023-03-11T11:01:58;5.60;;;1.55;;
24745;SDS011;12845;52.042;6.838;2023-03-11T11:06:59;3.40;;;1.10;;
24745;SDS011;12845;52.042;6.838;2023-03-11T11:09:44;5.03;;;0.77;;
24745;SDS011;12845;52.042;6.838;2023-03-11T11:12:14;5.43;;;1.38;;
24745;SDS011;12845;52.042;6.838;2023-03-11T11:14:46;3.85;;;1.00;;
24745;SDS011;12845;52.042;6.838;2023-03-11T11:17:27;7.07;;;1.35;;
24745;SDS011;12845;52.042;6.838;2023-03-11T11:19:55;4.07;;;1.20;;
24745;SDS011;12845;52.042;6.838;2023-03-11T11:22:23;6.07;;;1.63;;
24745;SDS011;12845;52.042;6.838;2023-03-11T11:24:50;3.95;;;1.00;;
24745;SDS011;12845;52.042;6.838;2023-03-11T11:27:19;7.50;;;1.70;;
24745;SDS011;12845;52.042;6.838;2023-03-11T11:32:47;7.33;;;2.20;;
24745;SDS011;12845;52.042;6.838;2023-03-11T11:35:15;4.90;;;1.38;;
24745;SDS011;12845;52.042;6.838;2023-03-11T11:37:42;5.38;;;1.90;;
24745;SDS011;12845;52.042;6.838;2023-03-11T11:42:46;3.38;;;1.13;;
24745;SDS011;12845;52.042;6.838;2023-03-11T11:45:23;3.92;;;1.05;;
24745;SDS011;12845;52.042;6.838;2023-03-11T11:47:54;3.90;;;1.30;;
24745;SDS011;12845;52.042;6.838;2023-03-11T11:50:28;4.45;;;1.40;;
24745;SDS011;12845;52.042;6.838;2023-03-11T11:53:14;3.63;;;1.00;;
24745;SDS011;12845;52.042;6.838;2023-03-11T11:55:46;12.32;;;3.58;;
24745;SDS011;12845;52.042;6.838;2023-03-11T11:58:12;10.55;;;4.05;;
24745;SDS011;12845;52.042;6.838;2023-03-11T12:06:30;7.53;;;2.55;;
24745;SDS011;12845;52.042;6.838;2023-03-11T12:14:48;9.10;;;3.72;;
24745;SDS011;12845;52.042;6.838;2023-03-11T12:17:19;3.97;;;1.33;;
24745;SDS011;12845;52.042;6.838;2023-03-11T12:19:53;3.13;;;1.27;;
24745;SDS011;12845;52.042;6.838;2023-03-11T12:22:43;11.18;;;4.20;;
24745;SDS011;12845;52.042;6.838;2023-03-11T12:30:57;6.45;;;1.45;;
24745;SDS011;12845;52.042;6.838;2023-03-11T12:33:34;5.22;;;1.65;;
24745;SDS011;12845;52.042;6.838;2023-03-11T12:36:28;4.20;;;1.27;;
24745;SDS011;12845;52.042;6.838;2023-03-11T12:38:56;4.50;;;1.40;;
24745;SDS011;12845;52.042;6.838;2023-03-11T12:52:51;4.10;;;0.82;;
24745;SDS011;12845;52.042;6.838;2023-03-11T12:55:23;2.10;;;0.88;;
24745;SDS011;12845;52.042;6.838;2023-03-11T12:57:55;4.40;;;0.98;;
24745;SDS011;12845;52.042;6.838;2023-03-11T13:09:19;2.30;;;0.80;;
24745;SDS011;12845;52.042;6.838;2023-03-11T13:11:47;3.42;;;1.15;;
24745;SDS011;12845;52.042;6.838;2023-03-11T13:20:00;2.83;;;0.82;;
24745;SDS011;12845;52.042;6.838;2023-03-11T13:28:17;3.78;;;1.00;;
24745;SDS011;12845;52.042;6.838;2023-03-11T13:36:35;5.18;;;0.98;;
24745;SDS011;12845;52.042;6.838;2023-03-11T13:42:01;3.95;;;1.08;;
24745;SDS011;12845;52.042;6.838;2023-03-11T13:44:30;2.00;;;0.88;;
24745;SDS011;12845;52.042;6.838;2023-03-11T13:47:04;4.32;;;1.42;;
24745;SDS011;12845;52.042;6.838;2023-03-11T13:52:51;12.18;;;4.00;;
24745;SDS011;12845;52.042;6.838;2023-03-11T13:55:19;12.48;;;4.15;;
24745;SDS011;12845;52.042;6.838;2023-03-11T14:00:23;2.25;;;0.70;;
24745;SDS011;12845;52.042;6.838;2023-03-11T14:03:00;3.30;;;0.93;;
24745;SDS011;12845;52.042;6.838;2023-03-11T14:05:34;1.90;;;0.90;;
24745;SDS011;12845;52.042;6.838;2023-03-11T14:16:13;4.05;;;1.00;;
24745;SDS011;12845;52.042;6.838;2023-03-11T14:18:44;3.23;;;0.67;;
24745;SDS011;12845;52.042;6.838;2023-03-11T14:23:48;4.30;;;0.90;;
24745;SDS011;12845;52.042;6.838;2023-03-11T14:26:16;4.90;;;1.40;;
24745;SDS011;12845;52.042;6.838;2023-03-11T14:28:48;5.15;;;1.30;;
24745;SDS011;12845;52.042;6.838;2023-03-11T14:36:38;9.77;;;3.30;;
24745;SDS011;12845;52.042;6.838;2023-03-11T14:42:10;2.45;;;1.00;;
24745;SDS011;12845;52.042;6.838;2023-03-11T14:44:44;5.63;;;1.90;;
24745;SDS011;12845;52.042;6.838;2023-03-11T14:49:57;3.85;;;1.30;;
24745;SDS011;12845;52.042;6.838;2023-03-11T14:55:47;3.40;;;1.15;;
24745;SDS011;12845;52.042;6.838;2023-03-11T15:01:14;16.30;;;6.65;;
24745;SDS011;12845;52.042;6.838;2023-03-11T15:03:49;10.10;;;3.35;;
24745;SDS011;12845;52.042;6.838;2023-03-11T15:06:24;5.25;;;1.92;;
24745;SDS011;12845;52.042;6.838;2023-03-11T15:08:58;9.55;;;4.10;;
24745;SDS011;12845;52.042;6.838;2023-03-11T15:11:52;7.20;;;3.30;;
24745;SDS011;12845;52.042;6.838;2023-03-11T15:14:49;4.07;;;2.10;;
24745;SDS011;12845;52.042;6.838;2023-03-11T15:19:40;7.15;;;1.30;;
24745;SDS011;12845;52.042;6.838;2023-03-11T15:25:02;4.68;;;3.00;;
24745;SDS011;12845;52.042;6.838;2023-03-11T15:27:38;6.18;;;1.67;;
24745;SDS011;12845;52.042;6.838;2023-03-11T15:30:14;6.55;;;2.53;;
24745;SDS011;12845;52.042;6.838;2023-03-11T15:32:50;3.40;;;0.93;;
24745;SDS011;12845;52.042;6.838;2023-03-11T15:35:18;6.35;;;1.80;;
24745;SDS011;12845;52.042;6.838;2023-03-11T15:37:47;5.82;;;2.15;;
24745;SDS011;12845;52.042;6.838;2023-03-11T15:40:21;4.15;;;1.42;;
24745;SDS011;12845;52.042;6.838;2023-03-11T15:42:47;2.45;;;0.85;;
24745;SDS011;12845;52.042;6.838;2023-03-11T15:45:14;3.90;;;1.42;;
24745;SDS011;12845;52.042;6.838;2023-03-11T15:47:45;4.18;;;1.90;;
24745;SDS011;12845;52.042;6.838;2023-03-11T15:50:16;3.22;;;1.40;;
24745;SDS011;12845;52.042;6.838;2023-03-11T15:52:43;3.47;;;1.33;;
24745;SDS011;12845;52.042;6.838;2023-03-11T15:55:09;6.65;;;3.00;;
24745;SDS011;12845;52.042;6.838;2023-03-11T15:57:45;8.63;;;4.40;;
24745;SDS011;12845;52.042;6.838;2023-03-11T16:00:22;8.35;;;3.50;;
24745;SDS011;12845;52.042;6.838;2023-03-11T16:02:55;4.40;;;2.67;;
24745;SDS011;12845;52.042;6.838;2023-03-11T16:05:22;6.20;;;2.22;;
24745;SDS011;12845;52.042;6.838;2023-03-11T16:07:48;3.13;;;1.42;;
24745;SDS011;12845;52.042;6.838;2023-03-11T16:10:32;3.25;;;1.60;;
24745;SDS011;12845;52.042;6.838;2023-03-11T16:23:25;5.15;;;2.42;;
24745;SDS011;12845;52.042;6.838;2023-03-11T16:25:57;5.15;;;2.05;;
24745;SDS011;12845;52.042;6.838;2023-03-11T16:28:24;7.35;;;2.00;;
24745;SDS011;12845;52.042;6.838;2023-03-11T16:30:50;5.63;;;1.80;;
24745;SDS011;12845;52.042;6.838;2023-03-11T16:33:16;5.22;;;2.70;;
24745;SDS011;12845;52.042;6.838;2023-03-11T16:35:41;8.00;;;3.55;;
24745;SDS011;12845;52.042;6.838;2023-03-11T16:38:07;6.78;;;2.85;;
24745;SDS011;12845;52.042;6.838;2023-03-11T16:40:32;7.47;;;2.50;;
24745;SDS011;12845;52.042;6.838;2023-03-11T16:43:04;8.25;;;2.72;;
24745;SDS011;12845;52.042;6.838;2023-03-11T16:45:32;6.20;;;3.10;;
24745;SDS011;12845;52.042;6.838;2023-03-11T16:47:58;3.67;;;2.22;;
24745;SDS011;12845;52.042;6.838;2023-03-11T16:50:23;8.32;;;2.13;;
24745;SDS011;12845;52.042;6.838;2023-03-11T16:52:49;8.52;;;3.10;;
24745;SDS011;12845;52.042;6.838;2023-03-11T16:55:15;6.20;;;3.58;;
24745;SDS011;12845;52.042;6.838;2023-03-11T16:57:41;5.70;;;3.38;;
24745;SDS011;12845;52.042;6.838;2023-03-11T17:00:07;8.63;;;4.90;;
24745;SDS011;12845;52.042;6.838;2023-03-11T17:02:35;7.78;;;3.83;;
24745;SDS011;12845;52.042;6.838;2023-03-11T17:05:01;10.32;;;6.00;;
24745;SDS011;12845;52.042;6.838;2023-03-11T17:07:28;12.45;;;6.50;;
24745;SDS011;12845;52.042;6.838;2023-03-11T17:09:54;10.25;;;5.05;;
24745;SDS011;12845;52.042;6.838;2023-03-11T17:12:21;11.40;;;6.68;;
24745;SDS011;12845;52.042;6.838;2023-03-11T17:14:47;8.38;;;4.35;;
24745;SDS011;12845;52.042;6.838;2023-03-11T17:17:12;8.45;;;5.68;;
24745;SDS011;12845;52.042;6.838;2023-03-11T17:19:38;10.68;;;6.28;;
24745;SDS011;12845;52.042;6.838;2023-03-11T17:22:03;12.05;;;5.60;;
24745;SDS011;12845;52.042;6.838;2023-03-11T17:24:29;8.80;;;4.53;;
24745;SDS011;12845;52.042;6.838;2023-03-11T17:26:55;12.45;;;6.30;;